Time;durP1;ratioP1;P1;durP2;ratioP2;P2;SDS_P1;SDS_P2;PMS_P1;PMS_P2;Temp;Humidity;BMP_temperature;BMP_pressure;BME280_temperature;BME280_humidity;BME280_pressure;Samples;Min_cycle;Max_cycle;Signal;HPM_P1;HPM_P2
2022/02/06 00:05:24;;;;;;;5.43;2.72;;;-1.30;99.90;;;;;;21127574;28;20061;-46
2022/02/06 00:15:27;;;;;;;7.63;2.95;;;-1.40;99.90;;;;;;21099452;28;20039;-46
2022/02/06 00:45:38;;;;;;;5.38;2.70;;;-1.60;99.90;;;;;;21110701;28;20036;-45
2022/02/06 00:55:41;;;;;;;6.78;3.08;;;-1.60;99.90;;;;;;21107287;28;20164;-46
2022/02/06 01:05:43;;;;;;;6.75;2.80;;;-1.70;99.90;;;;;;21089389;28;20081;-44
2022/02/06 01:15:53;;;;;;;7.00;3.08;;;-1.60;99.90;;;;;;21072816;28;20120;-46
2022/02/06 01:26:08;;;;;;;5.27;2.77;;;-1.60;99.90;;;;;;21106601;28;20479;-45
2022/02/06 02:07:25;;;;;;;8.35;4.65;;;-1.80;99.90;;;;;;20960397;28;20044;-44
2022/02/06 02:28:05;;;;;;;9.13;3.67;;;-1.80;99.90;;;;;;20991650;28;20048;-45
2022/02/06 02:48:29;;;;;;;11.45;5.38;;;-1.70;99.90;;;;;;21115233;28;19984;-44
2022/02/06 03:08:57;;;;;;;11.63;5.35;;;-2.10;99.90;;;;;;20837399;28;20072;-45
2022/02/06 03:19:09;;;;;;;12.13;5.50;;;-2.20;99.90;;;;;;20820537;28;20507;-47
2022/02/06 03:29:12;;;;;;;13.65;6.40;;;-2.10;99.90;;;;;;20827618;28;20037;-45
2022/02/06 03:39:22;;;;;;;13.63;7.20;;;-2.10;99.90;;;;;;20905455;28;20069;-45
2022/02/06 03:49:33;;;;;;;;;;;-2.10;99.90;;;;;;21102046;28;20040;-45
2022/02/06 03:59:36;;;;;;;17.45;7.75;;;-2.10;99.90;;;;;;21101226;28;19942;-46
2022/02/06 04:09:47;;;;;;;15.32;7.88;;;-2.20;99.90;;;;;;21100840;28;20032;-46
2022/02/06 04:19:51;;;;;;;21.65;9.48;;;-2.30;99.90;;;;;;21100602;28;20453;-45
2022/02/06 04:29:54;;;;;;;21.83;8.98;;;-2.50;99.90;;;;;;21075696;28;20028;-46
2022/02/06 04:40:22;;;;;;;21.98;11.13;;;-2.50;99.90;;;;;;21107693;28;20089;-46
2022/02/06 05:21:35;;;;;;;21.88;11.18;;;-2.50;99.90;;;;;;21105500;28;20036;-46
2022/02/06 05:31:38;;;;;;;25.20;11.80;;;-2.50;99.90;;;;;;21086391;28;20372;-45
2022/02/06 05:41:41;;;;;;;23.75;12.75;;;-2.60;99.90;;;;;;21120282;28;20092;-46
2022/02/06 05:51:44;;;;;;;30.88;13.55;;;-2.60;99.90;;;;;;21062319;28;20418;-48
2022/02/06 06:01:47;;;;;;;31.58;15.30;;;-2.50;99.90;;;;;;21102508;28;20091;-47
2022/02/06 06:11:49;;;;;;;35.20;15.38;;;-2.50;99.90;;;;;;21085357;28;20097;-45
2022/02/06 06:21:56;;;;;;;48.50;21.10;;;-2.30;99.90;;;;;;21115951;28;20036;-45
2022/02/06 06:31:59;;;;;;;43.17;19.63;;;-2.10;99.90;;;;;;21117126;28;20164;-45
2022/02/06 06:42:02;;;;;;;44.25;23.00;;;-2.00;99.90;;;;;;21118231;28;20486;-45
2022/02/06 06:52:06;;;;;;;40.78;18.48;;;-2.00;99.90;;;;;;21106838;28;20084;-45
2022/02/06 07:02:27;;;;;;;39.83;20.92;;;-1.80;99.90;;;;;;21089926;28;20085;-46
2022/02/06 07:12:29;;;;;;;41.30;20.80;;;-1.70;99.90;;;;;;21097270;28;20110;-46
2022/02/06 07:22:35;;;;;;;41.50;19.50;;;-1.60;99.90;;;;;;21102024;28;20039;-45
2022/02/06 07:32:39;;;;;;;32.03;15.02;;;-0.90;99.90;;;;;;21116879;28;20036;-46
2022/02/06 07:42:41;;;;;;;30.25;15.85;;;-0.40;99.90;;;;;;21102999;28;20032;-45
2022/02/06 07:52:50;;;;;;;28.25;13.98;;;0.20;99.90;;;;;;21128713;28;20089;-46
2022/02/06 08:02:53;;;;;;;19.15;8.82;;;1.20;99.90;;;;;;21110183;28;20459;-49
2022/02/06 08:13:06;;;;;;;16.23;9.85;;;2.20;99.90;;;;;;21108107;28;20048;-46
2022/02/06 08:23:09;;;;;;;16.73;8.70;;;3.20;99.90;;;;;;21103022;28;20035;-48
2022/02/06 08:33:11;;;;;;;12.23;7.35;;;3.60;99.90;;;;;;21104577;28;20085;-48
2022/02/06 08:43:13;;;;;;;17.35;9.25;;;3.70;99.90;;;;;;21100134;28;20102;-47
2022/02/06 08:53:16;;;;;;;13.98;8.30;;;3.60;99.90;;;;;;21109148;28;20065;-51
2022/02/06 09:03:20;;;;;;;15.30;8.43;;;3.40;99.90;;;;;;21063915;28;20097;-48
2022/02/06 09:13:23;;;;;;;15.32;8.80;;;3.70;99.90;;;;;;21072418;28;20113;-46
2022/02/06 09:23:25;;;;;;;14.60;8.32;;;4.10;99.90;;;;;;21106068;28;20032;-46
2022/02/06 09:43:32;;;;;;;16.27;8.52;;;4.70;99.90;;;;;;21091347;28;20028;-46
2022/02/06 09:53:36;;;;;;;17.70;10.00;;;4.60;99.90;;;;;;21084402;28;20459;-46
2022/02/06 10:03:46;;;;;;;17.15;8.70;;;4.50;99.90;;;;;;21098327;28;20082;-47
2022/02/06 10:13:48;;;;;;;15.82;9.35;;;4.60;99.90;;;;;;21075874;28;20047;-46
2022/02/06 10:24:03;;;;;;;19.38;10.10;;;4.60;99.90;;;;;;21109742;28;20487;-48
2022/02/06 10:34:29;;;;;;;21.45;10.43;;;4.90;99.90;;;;;;21125186;28;20377;-45
2022/02/06 10:44:32;;;;;;;22.45;11.15;;;5.00;99.90;;;;;;21086900;28;20105;-46
2022/02/06 10:54:37;;;;;;;20.35;11.50;;;5.10;99.90;;;;;;21106765;28;20085;-47
2022/02/06 11:04:54;;;;;;;20.80;10.60;;;5.90;99.90;;;;;;21080967;28;20085;-59
2022/02/06 11:15:01;;;;;;;16.10;9.45;;;6.20;99.90;;;;;;21097980;28;20078;-58
2022/02/06 11:25:08;;;;;;;17.98;10.35;;;6.90;99.90;;;;;;21054233;28;20043;-60
2022/02/06 11:35:16;;;;;;;12.13;6.32;;;7.40;99.90;;;;;;21106918;28;20109;-48
2022/02/06 11:45:28;;;;;;;11.15;5.18;;;7.50;99.70;;;;;;21107108;28;20180;-47
2022/02/06 11:55:48;;;;;;;21.38;10.93;;;8.20;97.10;;;;;;21112199;28;20040;-49
2022/02/06 12:05:58;;;;;;;;;;;8.30;97.70;;;;;;21085593;28;20086;-46
2022/02/06 12:16:04;;;;;;;15.98;9.00;;;8.00;98.20;;;;;;21133169;28;19916;-46
2022/02/06 12:26:31;;;;;;;18.85;10.40;;;7.60;96.90;;;;;;21089168;28;20058;-46
2022/02/06 12:47:03;;;;;;;12.27;6.68;;;8.70;91.60;;;;;;21118205;28;20467;-45
2022/02/06 12:57:05;;;;;;;41.08;21.92;;;8.30;94.20;;;;;;21096054;28;20062;-49
2022/02/06 13:07:11;;;;;;;23.42;12.50;;;7.80;99.90;;;;;;21098450;28;20484;-46
2022/02/06 13:38:01;;;;;;;6.15;2.17;;;7.60;93.20;;;;;;21087952;28;20137;-47
2022/02/06 13:48:06;;;;;;;6.18;2.15;;;7.50;83.80;;;;;;21097567;28;20078;-47
2022/02/06 13:58:18;;;;;;;4.03;1.80;;;7.90;84.90;;;;;;21123524;28;20028;-45
2022/02/06 14:08:22;;;;;;;5.40;2.55;;;7.80;82.10;;;;;;21107128;28;20496;-47
2022/02/06 14:18:24;;;;;;;9.55;3.55;;;7.80;80.60;;;;;;21089762;28;20442;-47
2022/02/06 14:28:27;;;;;;;7.75;3.95;;;6.90;82.40;;;;;;21060277;28;20035;-46
2022/02/06 14:38:41;;;;;;;8.30;4.20;;;6.40;87.50;;;;;;21101569;28;20059;-46
2022/02/06 14:48:44;;;;;;;9.90;4.03;;;5.70;89.50;;;;;;21090344;28;20036;-46
2022/02/06 14:58:47;;;;;;;7.75;4.07;;;5.40;91.40;;;;;;21078785;28;20105;-46
2022/02/06 15:08:52;;;;;;;6.65;3.67;;;5.30;92.00;;;;;;21122213;28;20028;-46
2022/02/06 15:18:59;;;;;;;12.73;5.22;;;5.00;93.00;;;;;;21113269;28;20043;-46
2022/02/06 15:29:02;;;;;;;11.07;4.38;;;4.80;94.70;;;;;;21113616;28;20036;-47
2022/02/06 15:39:21;;;;;;;9.40;4.70;;;4.70;93.90;;;;;;21111720;28;20556;-47
2022/02/06 15:49:24;;;;;;;11.90;5.05;;;4.60;94.10;;;;;;21099354;28;20031;-47
2022/02/06 15:59:27;;;;;;;15.15;7.38;;;4.50;95.20;;;;;;21116897;28;20100;-46
2022/02/06 16:09:31;;;;;;;13.10;6.57;;;4.30;98.70;;;;;;21109654;28;20036;-47
2022/02/06 16:19:34;;;;;;;10.60;5.82;;;4.00;98.20;;;;;;21091523;28;20528;-46
2022/02/06 16:29:40;;;;;;;10.63;5.57;;;3.90;98.60;;;;;;21066336;28;20376;-46
2022/02/06 16:39:47;;;;;;;9.13;5.28;;;4.10;98.10;;;;;;21097961;28;20377;-46
2022/02/06 16:49:51;;;;;;;10.38;5.25;;;4.00;98.20;;;;;;21076355;28;20499;-46
2022/02/06 16:59:55;;;;;;;14.30;6.57;;;3.80;98.50;;;;;;21087366;28;20032;-47
2022/02/06 17:09:58;;;;;;;8.75;5.10;;;3.70;99.90;;;;;;21093130;28;20036;-46
2022/02/06 17:20:02;;;;;;;12.57;5.60;;;3.60;99.40;;;;;;21122398;28;20137;-58
2022/02/06 17:30:06;;;;;;;8.98;4.43;;;3.30;98.90;;;;;;21118485;28;20040;-47
2022/02/06 17:40:12;;;;;;;7.68;4.25;;;3.00;99.90;;;;;;21116640;28;20081;-46
2022/02/06 17:50:16;;;;;;;6.18;3.15;;;2.90;99.90;;;;;;21150540;28;20039;-47
2022/02/06 18:00:19;;;;;;;4.35;2.38;;;2.90;98.90;;;;;;21114204;28;20028;-48
2022/02/06 18:10:22;;;;;;;4.97;2.58;;;3.30;96.70;;;;;;21126124;28;20065;-47
2022/02/06 18:20:27;;;;;;;6.55;3.20;;;3.50;97.10;;;;;;21112854;28;20052;-48
2022/02/06 18:30:30;;;;;;;9.18;3.00;;;3.20;99.50;;;;;;21106406;28;20077;-48
2022/02/06 18:40:33;;;;;;;6.07;3.17;;;3.40;98.20;;;;;;21116591;28;20031;-46
2022/02/06 18:50:37;;;;;;;5.60;2.75;;;3.50;98.90;;;;;;21124226;28;20096;-49
2022/02/06 19:00:40;;;;;;;5.80;2.60;;;3.70;97.40;;;;;;21108881;28;20036;-47
2022/02/06 19:10:44;;;;;;;6.28;3.00;;;3.90;94.80;;;;;;21097409;28;20101;-47
2022/02/06 19:20:47;;;;;;;9.25;4.90;;;4.10;94.70;;;;;;21096395;28;20052;-46
2022/02/06 19:30:49;;;;;;;5.82;3.22;;;3.90;97.90;;;;;;21112783;28;20100;-46
2022/02/06 19:40:53;;;;;;;9.07;3.45;;;3.90;97.60;;;;;;21095012;28;20072;-49
2022/02/06 19:50:57;;;;;;;11.75;4.05;;;3.50;97.70;;;;;;21111497;28;20551;-49
2022/02/06 20:01:00;;;;;;;5.50;3.15;;;3.50;99.30;;;;;;21093580;28;20111;-49
2022/02/06 20:11:04;;;;;;;4.53;2.28;;;3.50;98.50;;;;;;21115964;28;20044;-47
2022/02/06 20:21:07;;;;;;;3.83;2.38;;;3.80;95.90;;;;;;21094743;28;20191;-46
2022/02/06 20:31:09;;;;;;;2.17;1.13;;;4.10;96.00;;;;;;21108881;28;20047;-47
2022/02/06 20:41:12;;;;;;;6.35;2.33;;;4.20;95.00;;;;;;21107547;28;20603;-46
2022/02/06 20:51:15;;;;;;;3.50;1.40;;;4.60;94.40;;;;;;21103788;28;20384;-46
2022/02/06 21:01:19;;;;;;;3.80;1.63;;;4.50;92.90;;;;;;21082387;28;20036;-48
2022/02/06 21:11:23;;;;;;;4.00;2.05;;;4.60;92.30;;;;;;21098301;28;20036;-47
2022/02/06 21:21:26;;;;;;;4.20;2.22;;;4.60;91.20;;;;;;21094974;28;20089;-47
2022/02/06 21:31:28;;;;;;;5.05;2.85;;;4.70;91.30;;;;;;21092041;28;20483;-47
2022/02/06 21:41:32;;;;;;;5.85;2.63;;;4.70;91.90;;;;;;21097072;28;20085;-47
2022/02/06 21:51:34;;;;;;;8.13;2.30;;;4.60;91.50;;;;;;21102458;28;20156;-48
2022/02/06 22:01:37;;;;;;;6.70;3.25;;;4.80;91.40;;;;;;21126837;28;20550;-47
2022/02/06 22:20:25;;;;;;;6.05;3.15;;;4.70;95.40;;;;;;21094061;28;20185;-47
2022/02/06 22:32:29;;;;;;;8.30;3.80;;;4.10;95.80;;;;;;21092489;28;20036;-46
2022/02/06 22:42:32;;;;;;;8.90;4.88;;;3.60;98.90;;;;;;21101889;28;20061;-48
2022/02/06 22:52:34;;;;;;;7.78;4.00;;;3.20;99.90;;;;;;21122321;28;20040;-46
2022/02/06 23:02:36;;;;;;;11.10;4.38;;;2.80;99.90;;;;;;21124402;28;20487;-46
2022/02/06 23:12:39;;;;;;;12.90;5.40;;;2.80;99.90;;;;;;21098380;28;20047;-46
2022/02/06 23:22:46;;;;;;;9.52;4.95;;;2.70;99.90;;;;;;21130373;28;20101;-47
2022/02/06 23:32:49;;;;;;;13.48;6.72;;;2.60;99.90;;;;;;21129684;28;20040;-46
2022/02/06 23:42:52;;;;;;;10.52;5.35;;;2.60;99.90;;;;;;21087016;28;20032;-46
2022/02/06 23:53:10;;;;;;;9.52;4.93;;;2.60;99.90;;;;;;21110859;28;20096;-47
